createdAt,value
2023-05-21T00:01:06.761Z,14.43
2023-05-21T00:04:15.674Z,14.39
2023-05-21T00:07:19.045Z,14.33
2023-05-21T00:10:21.984Z,14.28
2023-05-21T00:13:25.098Z,14.26
2023-05-21T00:16:28.061Z,14.23
2023-05-21T00:19:32.905Z,14.21
2023-05-21T00:22:36.440Z,14.20
2023-05-21T00:25:39.634Z,14.15
2023-05-21T00:28:42.585Z,14.13
2023-05-21T00:31:45.587Z,14.10
2023-05-21T00:34:48.850Z,14.04
2023-05-21T00:37:52.339Z,14.00
2023-05-21T00:40:55.170Z,13.98
2023-05-21T00:44:00.567Z,13.96
2023-05-21T00:47:04.363Z,13.93
2023-05-21T00:50:08.817Z,13.87
2023-05-21T00:53:12.509Z,13.82
2023-05-21T00:56:15.436Z,13.78
2023-05-21T00:59:18.550Z,13.74
2023-05-21T01:03:22.294Z,13.72
2023-05-21T01:07:39.465Z,13.70
2023-05-21T01:12:03.281Z,13.68
2023-05-21T01:16:27.438Z,13.62
2023-05-21T01:20:51.439Z,13.54
2023-05-21T01:25:15.418Z,13.49
2023-05-21T01:29:39.235Z,13.45
2023-05-21T01:34:04.252Z,13.40
2023-05-21T01:38:40.412Z,13.39
2023-05-21T01:43:04.777Z,13.35
2023-05-21T01:47:28.652Z,13.32
2023-05-21T01:51:53.171Z,13.27
2023-05-21T01:56:17.055Z,13.25
2023-05-21T02:00:40.985Z,13.21
2023-05-21T02:05:04.795Z,13.17
2023-05-21T02:09:22.351Z,13.13
2023-05-21T02:13:37.317Z,13.08
2023-05-21T02:17:54.382Z,13.03
2023-05-21T02:22:18.395Z,13.01
2023-05-21T02:26:42.350Z,12.99
2023-05-21T02:31:06.011Z,12.95
2023-05-21T02:35:29.795Z,12.90
2023-05-21T02:39:53.747Z,12.87
2023-05-21T02:44:17.563Z,12.82
2023-05-21T02:48:41.392Z,12.81
2023-05-21T02:53:05.570Z,12.76
2023-05-21T02:57:29.420Z,12.74
2023-05-21T03:01:46.442Z,12.73
2023-05-21T03:06:10.382Z,12.73
2023-05-21T03:10:34.410Z,12.82
2023-05-21T03:14:51.435Z,12.95
2023-05-21T03:19:15.467Z,13.11
2023-05-21T03:23:39.537Z,13.31
2023-05-21T03:27:43.280Z,13.59
2023-05-21T03:32:10.179Z,13.86
2023-05-21T03:36:34.027Z,14.08
2023-05-21T03:40:57.852Z,14.26
2023-05-21T03:45:21.623Z,14.48
2023-05-21T03:49:31.283Z,14.67
2023-05-21T03:53:55.116Z,14.80
2023-05-21T03:58:17.636Z,14.99
2023-05-21T04:02:41.650Z,15.24
2023-05-21T04:06:57.209Z,15.37
2023-05-21T04:11:21.129Z,15.44
2023-05-21T04:15:45.167Z,15.41
2023-05-21T04:20:07.885Z,15.56
2023-05-21T04:24:31.736Z,15.78
2023-05-21T04:28:55.653Z,15.99
2023-05-21T04:33:19.619Z,16.27
2023-05-21T04:37:43.648Z,16.56
2023-05-21T04:42:01.509Z,16.87
2023-05-21T04:46:24.510Z,17.12
2023-05-21T04:50:38.071Z,17.14
2023-05-21T04:55:01.974Z,17.30
2023-05-21T04:59:18.575Z,17.52
2023-05-21T05:03:31.058Z,17.74
2023-05-21T05:07:43.646Z,17.99
2023-05-21T05:12:01.395Z,18.26
2023-05-21T05:16:25.747Z,18.42
2023-05-21T05:20:50.286Z,18.63
2023-05-21T05:25:14.417Z,18.77
2023-05-21T05:29:38.546Z,18.80
2023-05-21T05:33:55.400Z,18.98
2023-05-21T05:37:47.771Z,19.13
2023-05-21T05:42:04.598Z,19.52
2023-05-21T05:46:20.119Z,19.93
2023-05-21T05:50:14.861Z,20.37
2023-05-21T05:54:29.806Z,20.71
2023-05-21T05:58:26.163Z,21.02
2023-05-21T06:02:53.353Z,21.26
2023-05-21T06:06:56.136Z,21.40
2023-05-21T06:10:43.069Z,21.72
2023-05-21T06:14:23.336Z,21.83
2023-05-21T06:18:47.211Z,21.85
2023-05-21T06:22:53.759Z,21.57
2023-05-21T06:27:10.318Z,21.24
2023-05-21T06:31:17.899Z,21.03
2023-05-21T06:35:32.348Z,20.86
2023-05-21T06:39:47.934Z,20.89
2023-05-21T06:44:10.679Z,21.00
2023-05-21T06:48:20.683Z,21.03
2023-05-21T06:52:44.815Z,21.14
2023-05-21T06:57:08.823Z,21.21
2023-05-21T07:01:32.806Z,21.24
2023-05-21T07:05:56.864Z,21.30
2023-05-21T07:10:20.721Z,21.24
2023-05-21T07:14:34.869Z,21.27
2023-05-21T07:18:52.666Z,21.44
2023-05-21T07:23:01.721Z,21.73
2023-05-21T07:27:26.354Z,21.78
2023-05-21T07:31:42.962Z,21.91
2023-05-21T07:35:50.531Z,22.00
2023-05-21T07:39:45.312Z,21.94
2023-05-21T07:44:09.149Z,21.92
2023-05-21T07:48:16.175Z,22.07
2023-05-21T07:52:26.311Z,22.31
2023-05-21T07:56:50.211Z,22.44
2023-05-21T08:01:29.258Z,22.54
2023-05-21T08:05:53.161Z,22.84
2023-05-21T08:10:19.227Z,22.92
2023-05-21T08:14:42.270Z,22.88
2023-05-21T08:19:06.402Z,23.06
2023-05-21T08:23:31.414Z,23.11
2023-05-21T08:27:40.492Z,22.94
2023-05-21T08:31:24.130Z,22.83
2023-05-21T08:35:31.026Z,22.94
2023-05-21T08:38:54.391Z,22.85
2023-05-21T08:43:00.911Z,22.83
2023-05-21T08:47:26.937Z,22.96
2023-05-21T08:51:44.497Z,23.08
2023-05-21T08:56:07.518Z,23.35
2023-05-21T08:59:57.836Z,23.44
2023-05-21T09:08:34.152Z,23.12
2023-05-21T09:13:00.678Z,22.91
2023-05-21T09:17:05.122Z,22.88
2023-05-21T09:21:29.252Z,22.99
2023-05-21T09:25:49.910Z,22.91
2023-05-21T09:29:53.668Z,22.90
2023-05-21T09:34:08.785Z,22.94
2023-05-21T09:38:32.566Z,22.93
2023-05-21T09:42:50.207Z,23.08
2023-05-21T09:47:18.697Z,23.13
2023-05-21T09:51:35.714Z,23.25
2023-05-21T09:55:59.673Z,23.38
2023-05-21T10:00:23.527Z,23.43
2023-05-21T10:04:33.455Z,23.43
2023-05-21T10:09:05.622Z,23.37
2023-05-21T10:13:19.271Z,23.19
2023-05-21T10:17:37.196Z,23.14
2023-05-21T10:22:00.238Z,23.13
2023-05-21T10:26:17.007Z,23.17
2023-05-21T10:30:41.125Z,23.08
2023-05-21T10:34:51.738Z,23.35
2023-05-21T10:38:57.007Z,23.53
2023-05-21T10:43:33.117Z,23.51
2023-05-21T10:47:47.952Z,23.44
2023-05-21T10:52:10.734Z,23.24
2023-05-21T10:56:32.896Z,23.18
2023-05-21T11:00:31.661Z,23.24
2023-05-21T11:04:46.251Z,23.18
2023-05-21T11:09:00.471Z,23.19
2023-05-21T11:13:06.458Z,23.14
2023-05-21T11:16:36.516Z,23.15
2023-05-21T11:21:00.469Z,23.11
2023-05-21T11:25:08.331Z,23.11
2023-05-21T11:29:43.078Z,22.95
2023-05-21T11:33:52.561Z,22.96
2023-05-21T11:38:14.203Z,23.02
2023-05-21T11:42:36.335Z,23.28
2023-05-21T11:46:19.750Z,23.36
2023-05-21T11:50:36.194Z,23.35
2023-05-21T11:54:55.590Z,23.38
2023-05-21T11:59:02.190Z,23.34
2023-05-21T12:03:15.691Z,23.39
2023-05-21T12:07:16.672Z,23.26
2023-05-21T12:11:35.922Z,23.27
2023-05-21T12:15:57.544Z,23.37
2023-05-21T12:20:21.407Z,23.43
2023-05-21T12:24:45.281Z,23.60
2023-05-21T12:29:09.209Z,23.72
2023-05-21T12:33:33.033Z,23.64
2023-05-21T12:38:02.619Z,23.50
2023-05-21T12:41:57.784Z,23.40
2023-05-21T12:46:12.904Z,23.34
2023-05-21T12:50:22.107Z,23.23
2023-05-21T12:54:38.799Z,23.30
2023-05-21T12:58:53.838Z,23.21
2023-05-21T13:03:23.397Z,23.15
2023-05-21T13:07:47.593Z,23.10
2023-05-21T13:11:37.175Z,23.12
2023-05-21T13:15:41.081Z,23.16
2023-05-21T13:20:04.468Z,23.15
2023-05-21T13:24:16.952Z,23.25
2023-05-21T13:28:15.318Z,23.18
2023-05-21T13:32:39.199Z,23.05
2023-05-21T13:37:03.202Z,23.05
2023-05-21T13:41:27.254Z,23.01
2023-05-21T13:45:51.279Z,22.98
2023-05-21T13:50:05.296Z,23.02
2023-05-21T13:54:27.931Z,23.00
2023-05-21T13:58:54.582Z,22.86
2023-05-21T14:03:18.519Z,22.76
2023-05-21T14:07:42.486Z,22.66
2023-05-21T14:11:03.998Z,22.67
2023-05-21T14:15:28.651Z,22.64
2023-05-21T14:19:29.993Z,22.59
2023-05-21T14:23:54.240Z,22.59
2023-05-21T14:27:46.938Z,22.47
2023-05-21T14:32:10.680Z,22.37
2023-05-21T14:36:14.483Z,22.40
2023-05-21T14:40:38.431Z,22.44
2023-05-21T14:45:16.942Z,22.46
2023-05-21T14:49:34.963Z,22.47
2023-05-21T14:53:59.104Z,22.45
2023-05-21T14:58:22.999Z,22.43
2023-05-21T15:02:47.043Z,22.39
2023-05-21T15:06:58.669Z,22.32
2023-05-21T15:11:12.463Z,22.27
2023-05-21T15:15:36.570Z,22.21
2023-05-21T15:20:01.001Z,22.12
2023-05-21T15:24:04.188Z,22.07
2023-05-21T15:28:25.311Z,22.07
2023-05-21T15:32:31.443Z,22.01
2023-05-21T15:36:39.284Z,21.90
2023-05-21T15:40:55.919Z,21.79
2023-05-21T15:45:19.764Z,21.72
2023-05-21T15:49:43.615Z,21.70
2023-05-21T15:54:07.703Z,21.64
2023-05-21T15:58:31.669Z,21.58
2023-05-21T16:02:55.635Z,21.51
2023-05-21T16:07:19.527Z,21.46
2023-05-21T16:11:44.446Z,21.41
2023-05-21T16:16:07.713Z,21.32
2023-05-21T16:20:31.817Z,21.28
2023-05-21T16:24:40.912Z,21.23
2023-05-21T16:29:04.870Z,21.16
2023-05-21T16:33:08.538Z,21.09
2023-05-21T16:37:32.514Z,20.98
2023-05-21T16:41:36.517Z,20.90
2023-05-21T16:45:53.547Z,20.85
2023-05-21T16:50:07.379Z,20.75
2023-05-21T16:54:31.465Z,20.67
2023-05-21T16:58:55.402Z,20.59
2023-05-21T17:03:19.300Z,20.54
2023-05-21T17:07:35.663Z,20.50
2023-05-21T17:11:59.561Z,20.40
2023-05-21T17:16:13.937Z,20.31
2023-05-21T17:20:38.246Z,20.24
2023-05-21T17:24:42.371Z,20.13
2023-05-21T17:29:14.582Z,19.98
2023-05-21T17:33:38.377Z,19.85
2023-05-21T17:38:02.189Z,19.69
2023-05-21T17:42:09.044Z,19.56
2023-05-21T17:46:25.617Z,19.34
2023-05-21T17:50:33.540Z,19.14
2023-05-21T17:54:44.256Z,18.97
2023-05-21T17:58:45.446Z,18.87
2023-05-21T18:02:55.344Z,18.78
2023-05-21T18:07:19.668Z,18.63
2023-05-21T18:11:43.688Z,18.54
2023-05-21T18:15:57.811Z,18.47
2023-05-21T18:20:21.690Z,18.39
2023-05-21T18:24:38.361Z,18.28
2023-05-21T18:29:01.906Z,18.18
2023-05-21T18:33:26.663Z,18.11
2023-05-21T18:37:41.874Z,18.07
2023-05-21T18:46:29.354Z,17.89
2023-05-21T18:50:36.133Z,17.82
2023-05-21T18:54:49.571Z,17.76
2023-05-21T18:58:53.202Z,17.67
2023-05-21T19:03:17.132Z,17.57
2023-05-21T19:07:41.034Z,17.43
2023-05-21T19:12:04.987Z,17.28
2023-05-21T19:16:19.426Z,17.13
2023-05-21T19:20:43.390Z,16.95
2023-05-21T19:25:08.371Z,16.86
2023-05-21T19:29:33.254Z,16.75
2023-05-21T19:33:50.749Z,16.63
2023-05-21T19:38:14.651Z,16.52
2023-05-21T19:42:38.501Z,16.40
2023-05-21T19:46:51.606Z,16.30
2023-05-21T19:51:16.833Z,16.21
2023-05-21T19:55:41.862Z,16.08
2023-05-21T20:00:05.644Z,15.97
2023-05-21T20:04:30.812Z,15.90
2023-05-21T20:08:55.416Z,15.84
2023-05-21T20:13:19.362Z,15.76
2023-05-21T20:17:43.882Z,15.67
2023-05-21T20:22:07.931Z,15.62
2023-05-21T20:26:15.468Z,15.49
2023-05-21T20:30:39.698Z,15.41
2023-05-21T20:35:04.290Z,15.39
2023-05-21T20:39:17.336Z,15.43
2023-05-21T20:43:41.250Z,15.43
2023-05-21T20:47:58.941Z,15.37
2023-05-21T20:52:22.842Z,15.33
2023-05-21T20:56:26.646Z,15.30
2023-05-21T21:00:39.721Z,15.24
2023-05-21T21:05:03.699Z,15.14
2023-05-21T21:09:27.519Z,15.03
2023-05-21T21:13:51.291Z,14.95
2023-05-21T21:18:04.997Z,14.87
2023-05-21T21:21:51.156Z,14.75
2023-05-21T21:26:07.524Z,14.70
2023-05-21T21:30:24.439Z,14.64
2023-05-21T21:34:22.185Z,14.58
2023-05-21T21:38:46.017Z,14.55
2023-05-21T21:43:10.723Z,14.48
2023-05-21T21:47:34.587Z,14.41
2023-05-21T21:51:49.294Z,14.38
2023-05-21T21:56:05.986Z,14.37
2023-05-21T22:00:17.351Z,14.34
2023-05-21T22:04:41.429Z,14.29
2023-05-21T22:09:04.573Z,14.22
2023-05-21T22:13:29.978Z,14.23
2023-05-21T22:17:47.097Z,14.44
2023-05-21T22:22:03.677Z,14.56
2023-05-21T22:26:27.554Z,14.54
2023-05-21T22:30:51.347Z,14.46
2023-05-21T22:35:07.783Z,14.33
2023-05-21T22:39:31.580Z,14.21
2023-05-21T22:43:55.684Z,13.99
2023-05-21T22:48:02.614Z,13.81
2023-05-21T22:52:26.450Z,13.75
2023-05-21T22:56:40.162Z,13.60
2023-05-21T23:01:04.032Z,13.41
2023-05-21T23:05:21.011Z,13.33
2023-05-21T23:09:45.370Z,13.48
2023-05-21T23:13:51.887Z,13.55
2023-05-21T23:18:15.750Z,13.54
2023-05-21T23:22:16.770Z,13.45
2023-05-21T23:26:33.454Z,13.34
2023-05-21T23:30:19.706Z,13.25
2023-05-21T23:34:43.536Z,13.18
2023-05-21T23:39:07.369Z,13.12
2023-05-21T23:43:31.199Z,13.06
2023-05-21T23:47:55.118Z,13.01
2023-05-21T23:52:19.010Z,13.01
2023-05-21T23:56:42.799Z,13.15
